Time;durP1;ratioP1;P1;durP2;ratioP2;P2;SDS_P1;SDS_P2;PMS_P1;PMS_P2;Temp;Humidity;BMP_temperature;BMP_pressure;BME280_temperature;BME280_humidity;BME280_pressure;Samples;Min_cycle;Max_cycle;Signal;HPM_P1;HPM_P2
2022/05/30 00:02:17;;;;;;;13.23;3.67;;;21.40;95.60;;;;;;5071663;28;20198;-72
2022/05/30 00:04:43;;;;;;;13.67;3.30;;;21.40;95.60;;;;;;5070815;28;20214;-70
2022/05/30 00:07:09;;;;;;;19.07;3.40;;;21.40;95.40;;;;;;5064422;28;20929;-71
2022/05/30 00:09:36;;;;;;;23.47;3.80;;;21.40;95.30;;;;;;5070704;28;20187;-70
2022/05/30 00:12:04;;;;;;;14.87;3.63;;;21.40;95.40;;;;;;5085296;28;20194;-72
2022/05/30 00:14:31;;;;;;;20.03;3.63;;;21.40;95.10;;;;;;5075181;28;20737;-70
2022/05/30 00:17:01;;;;;;;17.50;3.80;;;21.40;95.20;;;;;;5081025;28;20182;-70
2022/05/30 00:19:27;;;;;;;15.13;3.93;;;21.30;95.20;;;;;;5051340;28;20211;-70
2022/05/30 00:22:01;;;;;;;9.67;3.50;;;21.30;95.20;;;;;;5053550;28;20224;-69
2022/05/30 00:24:27;;;;;;;14.30;4.03;;;21.20;95.20;;;;;;5059357;28;20197;-70
2022/05/30 00:26:53;;;;;;;14.87;3.50;;;21.20;95.10;;;;;;5096367;28;20194;-71
2022/05/30 00:29:20;;;;;;;11.47;3.47;;;21.20;95.20;;;;;;5087771;28;20229;-71
2022/05/30 00:31:47;;;;;;;16.57;3.50;;;21.20;95.00;;;;;;5087456;28;20214;-70
2022/05/30 00:34:14;;;;;;;15.63;3.77;;;21.20;95.00;;;;;;5088389;28;20210;-70
2022/05/30 00:36:41;;;;;;;13.67;3.50;;;21.20;94.90;;;;;;5066592;28;20179;-70
2022/05/30 00:39:07;;;;;;;13.40;3.30;;;21.20;94.70;;;;;;5049281;28;20531;-70
2022/05/30 00:41:34;;;;;;;15.10;3.67;;;21.20;94.50;;;;;;5075965;28;20205;-70
2022/05/30 00:44:00;;;;;;;16.17;3.37;;;21.20;94.60;;;;;;5088066;28;20184;-70
2022/05/30 00:46:27;;;;;;;17.80;3.93;;;21.20;94.40;;;;;;5085830;28;20235;-70
2022/05/30 00:49:13;;;;;;;19.47;3.57;;;21.20;94.30;;;;;;5075062;28;20194;-70
2022/05/30 00:51:55;;;;;;;16.70;3.70;;;21.20;94.30;;;;;;5087139;28;20244;-72
2022/05/30 00:54:33;;;;;;;15.03;3.70;;;21.30;94.20;;;;;;5067566;28;20597;-71
2022/05/30 00:57:20;;;;;;;12.00;3.23;;;21.30;94.10;;;;;;5101152;28;20736;-69
2022/05/30 00:59:56;;;;;;;13.07;3.23;;;21.30;94.00;;;;;;5087014;28;20666;-69
2022/05/30 01:02:28;;;;;;;21.20;3.57;;;21.30;93.90;;;;;;5047161;28;20213;-72
2022/05/30 01:07:44;;;;;;;15.60;3.87;;;21.40;93.60;;;;;;5072977;28;20190;-71
2022/05/30 01:10:16;;;;;;;17.57;3.37;;;21.40;93.30;;;;;;5071715;28;20190;-69
2022/05/30 01:12:52;;;;;;;26.13;4.07;;;21.40;93.30;;;;;;5072911;28;20237;-72
2022/05/30 01:15:29;;;;;;;23.90;3.93;;;21.50;93.30;;;;;;5087165;28;20218;-70
2022/05/30 01:18:08;;;;;;;20.13;4.03;;;21.50;93.00;;;;;;5104069;28;20202;-70
2022/05/30 01:20:56;;;;;;;23.97;4.33;;;21.50;92.80;;;;;;5075250;28;20181;-71
2022/05/30 01:23:52;;;;;;;26.80;3.97;;;21.50;92.60;;;;;;5082129;28;20233;-71
2022/05/30 01:26:54;;;;;;;20.03;3.40;;;21.50;92.70;;;;;;5094220;28;20186;-71
2022/05/30 01:29:41;;;;;;;16.63;3.40;;;21.50;92.70;;;;;;5103221;28;20209;-71
2022/05/30 01:32:08;;;;;;;17.47;3.30;;;21.50;92.70;;;;;;5084834;28;20216;-70
2022/05/30 01:34:34;;;;;;;19.30;3.77;;;21.50;92.60;;;;;;5075529;28;20683;-71
2022/05/30 01:37:01;;;;;;;18.20;3.53;;;21.50;92.80;;;;;;5073473;28;20177;-71
2022/05/30 01:39:27;;;;;;;15.70;3.53;;;21.50;92.90;;;;;;5072867;28;20185;-69
2022/05/30 01:41:55;;;;;;;18.57;4.00;;;21.50;93.00;;;;;;5072740;28;20186;-69
2022/05/30 01:44:21;;;;;;;14.63;3.60;;;21.40;93.00;;;;;;5086302;28;20218;-72
2022/05/30 01:46:47;;;;;;;15.30;3.60;;;21.40;93.00;;;;;;5090436;28;20190;-70
2022/05/30 01:49:14;;;;;;;13.67;3.10;;;21.40;93.00;;;;;;5052252;28;20197;-71
2022/05/30 01:51:40;;;;;;;9.70;3.43;;;21.40;93.10;;;;;;5067018;28;20268;-69
2022/05/30 01:54:07;;;;;;;14.83;3.90;;;21.40;93.30;;;;;;5069964;28;20202;-70
2022/05/30 01:56:33;;;;;;;10.77;3.50;;;21.40;93.50;;;;;;5071885;28;20189;-70
2022/05/30 01:59:00;;;;;;;15.47;4.60;;;21.50;93.50;;;;;;5072247;28;20261;-70
2022/05/30 02:01:28;;;;;;;15.80;3.87;;;21.50;93.60;;;;;;5065853;28;20270;-70
2022/05/30 02:03:56;;;;;;;11.10;3.37;;;21.50;93.40;;;;;;5062483;28;20185;-69
2022/05/30 02:06:26;;;;;;;13.97;3.33;;;21.60;93.60;;;;;;5072840;28;20189;-69
2022/05/30 02:08:53;;;;;;;10.93;3.73;;;21.60;93.50;;;;;;5089945;28;20190;-71
2022/05/30 02:11:21;;;;;;;10.63;3.20;;;21.50;93.70;;;;;;5092845;28;20277;-72
2022/05/30 02:13:50;;;;;;;15.63;3.67;;;21.50;94.30;;;;;;5070765;28;20761;-70
2022/05/30 02:19:05;;;;;;;21.27;3.97;;;21.50;94.10;;;;;;5103493;28;20183;-71
2022/05/30 02:21:35;;;;;;;24.37;3.73;;;21.50;93.90;;;;;;5080418;28;20954;-71
2022/05/30 02:24:06;;;;;;;17.50;4.23;;;21.40;93.80;;;;;;5064188;28;20198;-71
2022/05/30 02:26:36;;;;;;;17.90;3.93;;;21.40;93.60;;;;;;5066581;28;20198;-71
2022/05/30 02:29:04;;;;;;;13.70;3.80;;;21.40;93.20;;;;;;5079199;28;20967;-70
2022/05/30 02:31:31;;;;;;;17.27;4.00;;;21.50;93.30;;;;;;5101333;28;20194;-72
2022/05/30 02:36:44;;;;;;;12.20;3.67;;;21.60;93.40;;;;;;5075985;28;20718;-69
2022/05/30 02:39:18;;;;;;;15.53;4.10;;;21.60;93.20;;;;;;5072351;28;20242;-70
2022/05/30 02:41:46;;;;;;;13.43;3.20;;;21.60;93.20;;;;;;5063441;28;20188;-69
2022/05/30 02:44:15;;;;;;;13.37;3.53;;;21.60;93.30;;;;;;5088247;28;20202;-70
2022/05/30 02:46:41;;;;;;;16.63;3.60;;;21.60;93.30;;;;;;5095590;28;20223;-70
2022/05/30 02:49:08;;;;;;;17.97;3.40;;;21.60;93.20;;;;;;5075042;28;20193;-69
2022/05/30 02:51:34;;;;;;;22.37;3.97;;;21.70;93.40;;;;;;5072982;28;20220;-70
2022/05/30 02:54:01;;;;;;;13.33;3.80;;;21.60;93.50;;;;;;5051313;28;21024;-72
2022/05/30 02:56:27;;;;;;;12.87;3.63;;;21.60;93.40;;;;;;5075175;28;20194;-72
2022/05/30 02:58:54;;;;;;;13.00;3.33;;;21.70;93.40;;;;;;5075513;28;20221;-71
2022/05/30 03:01:20;;;;;;;20.23;4.43;;;21.70;93.60;;;;;;5060894;28;20186;-70
2022/05/30 03:03:47;;;;;;;16.67;3.60;;;21.70;93.60;;;;;;5089667;28;20238;-71
2022/05/30 03:06:13;;;;;;;12.87;3.80;;;21.70;93.70;;;;;;5098358;28;20249;-69
2022/05/30 03:08:40;;;;;;;17.07;3.50;;;21.70;93.90;;;;;;5090672;28;20189;-70
2022/05/30 03:11:11;;;;;;;17.83;3.93;;;21.70;94.60;;;;;;5083855;28;20744;-70
2022/05/30 03:13:38;;;;;;;17.87;4.10;;;21.60;94.60;;;;;;5070527;28;20289;-71
2022/05/30 03:16:05;;;;;;;12.63;3.87;;;21.60;94.70;;;;;;5077595;28;20194;-72
2022/05/30 03:18:31;;;;;;;13.83;3.43;;;21.60;94.90;;;;;;5069788;28;20232;-70
2022/05/30 03:20:58;;;;;;;10.43;3.17;;;21.60;95.00;;;;;;5094835;28;20189;-71
2022/05/30 03:23:26;;;;;;;19.67;3.80;;;21.60;95.20;;;;;;5050306;28;20578;-69
2022/05/30 03:25:53;;;;;;;8.97;3.37;;;21.60;95.40;;;;;;5053670;28;20247;-70
2022/05/30 03:28:20;;;;;;;11.67;4.00;;;21.60;95.50;;;;;;5089505;28;20288;-69
2022/05/30 03:30:46;;;;;;;12.80;3.53;;;21.60;95.60;;;;;;5069714;28;20542;-69
2022/05/30 03:33:13;;;;;;;16.00;4.37;;;21.70;95.90;;;;;;5086151;28;20202;-70
2022/05/30 03:35:39;;;;;;;13.23;3.97;;;21.70;96.30;;;;;;5069051;28;20271;-70
2022/05/30 03:38:07;;;;;;;11.33;3.73;;;21.70;96.60;;;;;;5079583;28;20186;-72
2022/05/30 03:40:38;;;;;;;18.17;4.40;;;21.80;96.80;;;;;;5102302;28;20243;-70
2022/05/30 03:43:11;;;;;;;10.97;4.07;;;21.80;97.20;;;;;;5100540;28;20181;-70
2022/05/30 03:45:41;;;;;;;11.97;4.23;;;21.80;97.40;;;;;;5070995;28;20182;-71
2022/05/30 03:48:11;;;;;;;17.50;4.43;;;21.90;97.50;;;;;;5089456;28;20661;-70
2022/05/30 03:50:42;;;;;;;15.70;4.40;;;21.90;97.60;;;;;;5049330;28;20178;-69
2022/05/30 03:53:14;;;;;;;15.27;4.20;;;21.90;97.80;;;;;;5080041;28;20190;-72
2022/05/30 03:55:49;;;;;;;14.37;4.23;;;22.00;98.00;;;;;;5089448;28;20211;-71
2022/05/30 03:58:16;;;;;;;13.03;3.70;;;22.00;98.20;;;;;;5079942;28;20242;-73
2022/05/30 04:00:44;;;;;;;14.50;4.70;;;22.10;98.50;;;;;;5086273;28;20210;-71
2022/05/30 04:03:10;;;;;;;14.27;4.47;;;22.10;98.90;;;;;;5088002;28;20232;-72
2022/05/30 04:05:37;;;;;;;15.33;4.63;;;22.20;99.00;;;;;;5089138;28;20186;-71
2022/05/30 04:08:03;;;;;;;14.50;4.30;;;22.20;99.10;;;;;;5053579;28;20221;-71
2022/05/30 04:10:31;;;;;;;14.37;4.13;;;22.20;99.30;;;;;;5065731;28;20190;-71
2022/05/30 04:13:07;;;;;;;12.17;4.33;;;22.30;99.40;;;;;;5086900;28;20213;-70
2022/05/30 04:15:34;;;;;;;16.37;4.57;;;22.30;99.50;;;;;;5090491;28;20198;-72
2022/05/30 04:18:00;;;;;;;16.43;4.00;;;22.40;99.60;;;;;;5053120;28;20186;-70
2022/05/30 04:20:27;;;;;;;12.43;3.70;;;22.40;99.40;;;;;;5051719;28;20230;-70
2022/05/30 04:22:54;;;;;;;14.37;4.00;;;22.50;99.10;;;;;;5089067;28;20232;-71
2022/05/30 04:25:20;;;;;;;12.70;3.90;;;22.50;98.90;;;;;;5059708;28;20209;-71
2022/05/30 04:27:47;;;;;;;15.20;3.70;;;22.70;99.40;;;;;;5087632;28;20309;-71
2022/05/30 04:30:14;;;;;;;11.80;3.73;;;22.80;99.70;;;;;;5088263;28;20193;-69
2022/05/30 04:32:40;;;;;;;14.10;3.72;;;22.90;99.50;;;;;;5090142;28;20651;-70
2022/05/30 04:35:08;;;;;;;14.80;3.57;;;23.00;99.40;;;;;;5082707;28;20222;-71
2022/05/30 04:37:35;;;;;;;12.27;3.83;;;23.10;99.60;;;;;;5067666;28;20194;-70
2022/05/30 04:40:01;;;;;;;14.13;3.47;;;23.20;99.90;;;;;;5055221;28;20574;-72
2022/05/30 04:42:28;;;;;;;13.37;3.70;;;23.40;99.90;;;;;;5085860;28;20177;-71
2022/05/30 04:44:54;;;;;;;14.75;4.38;;;23.50;99.90;;;;;;5086059;28;20634;-70
2022/05/30 04:47:21;;;;;;;8.70;3.95;;;23.70;99.90;;;;;;5090215;28;20297;-71
2022/05/30 04:49:48;;;;;;;12.95;4.00;;;23.80;99.60;;;;;;5057076;28;20216;-72
2022/05/30 04:52:15;;;;;;;7.82;3.58;;;23.90;99.30;;;;;;5068795;28;20186;-70
2022/05/30 04:54:42;;;;;;;10.73;3.70;;;24.00;99.30;;;;;;5083312;28;20202;-70
2022/05/30 04:57:11;;;;;;;14.38;4.15;;;24.10;99.40;;;;;;5049141;28;20193;-71
2022/05/30 04:59:42;;;;;;;9.98;3.22;;;24.20;99.40;;;;;;5053418;28;20659;-71
2022/05/30 05:02:13;;;;;;;10.93;3.45;;;24.30;99.90;;;;;;5086446;28;20200;-70
2022/05/30 05:04:40;;;;;;;13.95;4.10;;;24.40;99.90;;;;;;5096779;28;20194;-70
2022/05/30 05:07:07;;;;;;;14.85;3.83;;;24.40;99.90;;;;;;5042076;28;20187;-70
2022/05/30 05:09:40;;;;;;;14.00;4.00;;;24.40;99.90;;;;;;5081706;28;20182;-71
2022/05/30 05:12:07;;;;;;;16.48;3.72;;;24.30;99.90;;;;;;5087156;28;20647;-70
2022/05/30 05:14:34;;;;;;;10.45;3.08;;;24.30;99.60;;;;;;5071153;28;20217;-71
2022/05/30 05:17:00;;;;;;;8.38;3.22;;;24.30;99.20;;;;;;5081398;28;20200;-72
2022/05/30 05:19:28;;;;;;;9.85;3.08;;;24.50;99.40;;;;;;5088292;28;20594;-72
2022/05/30 05:21:56;;;;;;;8.50;2.97;;;24.60;98.90;;;;;;5061262;28;20192;-71
2022/05/30 05:24:22;;;;;;;6.93;3.05;;;25.00;97.30;;;;;;5088436;28;20255;-71
2022/05/30 05:26:50;;;;;;;7.15;2.75;;;25.20;94.50;;;;;;5070363;28;20190;-71
2022/05/30 05:29:17;;;;;;;8.27;2.70;;;25.50;93.70;;;;;;5070594;28;20219;-73
2022/05/30 05:31:45;;;;;;;6.00;2.88;;;25.60;94.50;;;;;;5089827;28;20197;-70
2022/05/30 05:34:14;;;;;;;7.03;3.03;;;25.50;94.40;;;;;;5094582;28;20243;-71
2022/05/30 05:36:46;;;;;;;8.65;3.15;;;25.50;93.90;;;;;;5086329;28;20198;-70
2022/05/30 05:39:17;;;;;;;9.00;3.10;;;25.60;94.70;;;;;;5065349;28;20333;-71
2022/05/30 05:41:45;;;;;;;10.85;3.47;;;25.50;95.20;;;;;;5066527;28;20278;-71
2022/05/30 05:44:14;;;;;;;7.80;3.00;;;25.50;93.90;;;;;;5060273;28;20227;-70
2022/05/30 05:46:41;;;;;;;9.88;2.95;;;25.50;94.70;;;;;;5069916;28;20178;-70
2022/05/30 05:49:09;;;;;;;6.93;2.90;;;25.50;95.00;;;;;;5068477;28;20259;-73
2022/05/30 05:51:37;;;;;;;8.45;3.20;;;25.70;94.10;;;;;;5086614;28;20256;-69
2022/05/30 05:54:05;;;;;;;7.10;2.95;;;25.60;95.50;;;;;;5057865;28;20301;-71
2022/05/30 05:56:31;;;;;;;8.88;2.85;;;25.70;95.70;;;;;;5075424;28;20186;-71
2022/05/30 05:58:58;;;;;;;7.18;3.03;;;25.90;93.90;;;;;;5066549;28;20199;-71
2022/05/30 06:01:31;;;;;;;7.38;3.25;;;26.10;93.60;;;;;;5070114;28;20224;-71
2022/05/30 06:04:05;;;;;;;6.40;3.20;;;26.30;94.20;;;;;;5083853;28;20182;-69
2022/05/30 06:06:33;;;;;;;9.48;3.15;;;26.10;94.50;;;;;;5062474;28;20684;-70
2022/05/30 06:09:01;;;;;;;7.53;2.97;;;26.20;93.60;;;;;;5055158;28;20239;-73
2022/05/30 06:11:29;;;;;;;9.18;3.22;;;26.10;95.00;;;;;;5092077;28;20267;-70
2022/05/30 06:13:57;;;;;;;10.68;3.10;;;26.30;93.70;;;;;;5077778;28;20263;-71
2022/05/30 06:16:28;;;;;;;6.05;3.22;;;26.30;94.90;;;;;;5075821;28;20186;-72
2022/05/30 06:18:57;;;;;;;11.18;3.05;;;26.40;95.30;;;;;;5085943;28;21162;-71
2022/05/30 06:21:27;;;;;;;10.45;3.45;;;26.30;94.90;;;;;;5094040;28;20185;-73
2022/05/30 06:23:55;;;;;;;8.02;3.35;;;26.50;94.20;;;;;;5057846;28;20187;-70
2022/05/30 06:26:22;;;;;;;10.05;3.35;;;26.70;93.80;;;;;;5094586;28;20226;-70
2022/05/30 06:28:49;;;;;;;7.95;2.92;;;26.80;93.90;;;;;;5083570;28;20218;-72
2022/05/30 06:31:21;;;;;;;10.05;3.28;;;27.00;93.40;;;;;;5091926;28;20272;-72
2022/05/30 06:33:48;;;;;;;5.47;2.92;;;27.10;94.10;;;;;;5070100;28;20182;-69
2022/05/30 06:36:19;;;;;;;9.90;2.70;;;27.00;93.90;;;;;;5077045;28;20183;-73
2022/05/30 06:38:46;;;;;;;8.45;3.35;;;27.00;94.50;;;;;;5094366;28;20916;-72
2022/05/30 06:41:22;;;;;;;9.05;2.85;;;27.10;94.00;;;;;;5098107;28;20263;-71
2022/05/30 06:43:53;;;;;;;5.90;3.03;;;27.20;94.60;;;;;;5092466;28;20218;-71
2022/05/30 06:46:19;;;;;;;15.73;3.08;;;27.20;95.00;;;;;;5068105;28;20190;-72
2022/05/30 06:48:48;;;;;;;8.05;3.10;;;27.20;94.40;;;;;;5102218;28;20468;-71
2022/05/30 06:51:20;;;;;;;9.73;3.10;;;27.30;94.10;;;;;;5086776;28;20323;-73
2022/05/30 06:53:46;;;;;;;6.30;2.60;;;27.40;94.90;;;;;;5069012;28;21011;-70
2022/05/30 06:56:24;;;;;;;11.80;2.72;;;27.30;94.00;;;;;;5072692;28;20193;-70
2022/05/30 06:58:53;;;;;;;11.30;3.08;;;27.70;92.90;;;;;;5090418;28;20791;-71
2022/05/30 07:01:22;;;;;;;10.13;2.90;;;27.80;91.80;;;;;;5060571;28;20197;-70
2022/05/30 07:03:49;;;;;;;10.65;2.83;;;27.80;92.60;;;;;;5084514;28;20193;-72
2022/05/30 07:06:23;;;;;;;4.95;2.63;;;27.90;93.00;;;;;;5075372;28;20617;-72
2022/05/30 07:08:50;;;;;;;7.15;2.75;;;27.80;93.40;;;;;;5066298;28;20246;-71
2022/05/30 07:11:19;;;;;;;9.20;3.13;;;27.80;94.10;;;;;;5075331;28;20577;-71
2022/05/30 07:13:46;;;;;;;10.05;2.88;;;28.00;93.40;;;;;;5065089;28;20213;-71
2022/05/30 07:16:14;;;;;;;7.00;2.60;;;28.00;92.80;;;;;;5067917;28;20194;-73
2022/05/30 07:18:44;;;;;;;12.38;4.00;;;28.10;93.50;;;;;;5057352;28;20212;-72
2022/05/30 07:21:15;;;;;;;12.57;4.13;;;28.20;98.00;;;;;;5092561;28;20205;-71
2022/05/30 07:23:43;;;;;;;11.20;3.97;;;28.30;99.80;;;;;;5069973;28;20186;-71
2022/05/30 07:26:16;;;;;;;15.90;4.70;;;28.20;99.90;;;;;;5050820;28;20542;-74
2022/05/30 07:28:43;;;;;;;15.77;4.05;;;28.10;99.90;;;;;;5076092;28;20194;-73
2022/05/30 07:31:14;;;;;;;14.25;3.75;;;27.90;99.90;;;;;;5066185;28;20190;-72
2022/05/30 07:33:44;;;;;;;10.25;3.33;;;27.90;99.90;;;;;;5065887;28;20187;-71
2022/05/30 07:36:21;;;;;;;15.27;4.45;;;27.90;99.90;;;;;;5102274;28;20194;-70
2022/05/30 07:38:49;;;;;;;15.43;3.78;;;27.90;99.90;;;;;;5086434;28;20193;-72
2022/05/30 07:41:15;;;;;;;22.40;4.68;;;28.00;99.70;;;;;;5062768;28;20307;-72
2022/05/30 07:43:41;;;;;;;17.15;4.43;;;28.00;99.90;;;;;;5086196;28;20188;-70
2022/05/30 07:46:14;;;;;;;14.70;4.35;;;27.90;99.90;;;;;;5075207;28;20174;-71
2022/05/30 07:48:42;;;;;;;17.45;4.50;;;27.90;99.90;;;;;;5074229;28;20205;-72
2022/05/30 07:51:14;;;;;;;13.10;4.13;;;27.80;99.90;;;;;;5086959;28;20197;-71
2022/05/30 07:53:43;;;;;;;12.15;4.00;;;27.80;99.90;;;;;;5081632;28;20190;-72
2022/05/30 07:56:18;;;;;;;15.57;4.15;;;27.90;99.90;;;;;;5083304;28;20260;-72
2022/05/30 07:58:45;;;;;;;17.23;4.93;;;27.90;99.90;;;;;;5049708;28;20181;-71
2022/05/30 08:01:18;;;;;;;12.98;4.63;;;28.00;99.90;;;;;;5028097;28;20220;-72
2022/05/30 08:03:46;;;;;;;19.58;5.05;;;28.00;99.90;;;;;;5080744;28;20190;-72
2022/05/30 08:06:22;;;;;;;15.85;4.60;;;28.20;99.90;;;;;;5094894;27;20229;-72
2022/05/30 08:08:51;;;;;;;18.13;4.18;;;28.20;99.90;;;;;;5065763;28;20197;-72
2022/05/30 08:11:17;;;;;;;13.38;4.85;;;28.30;99.90;;;;;;5089362;28;20888;-71
2022/05/30 08:13:46;;;;;;;16.95;4.50;;;28.30;99.90;;;;;;5045738;28;20578;-72
2022/05/30 08:16:20;;;;;;;17.40;5.53;;;28.30;99.90;;;;;;5053085;28;20285;-72
2022/05/30 08:18:47;;;;;;;10.85;4.57;;;28.40;99.90;;;;;;5103695;27;20185;-72
2022/05/30 08:21:16;;;;;;;12.50;4.75;;;28.40;99.90;;;;;;5049572;28;20209;-74
2022/05/30 08:23:43;;;;;;;17.00;5.28;;;28.40;99.90;;;;;;5063713;28;20317;-72
2022/05/30 08:26:13;;;;;;;15.85;4.95;;;28.40;99.90;;;;;;5075257;28;20190;-73
2022/05/30 08:28:43;;;;;;;20.50;5.63;;;28.40;99.90;;;;;;5050466;28;20251;-72
2022/05/30 08:31:10;;;;;;;16.52;4.53;;;28.50;99.90;;;;;;5085594;28;20201;-72
2022/05/30 08:33:37;;;;;;;15.98;4.95;;;28.60;99.90;;;;;;5090272;28;20197;-72
2022/05/30 08:36:09;;;;;;;12.45;4.97;;;28.70;99.90;;;;;;5071756;28;20237;-71
2022/05/30 08:38:37;;;;;;;20.95;4.80;;;28.70;99.90;;;;;;5085100;28;20185;-71
2022/05/30 08:44:01;;;;;;;16.27;5.05;;;28.70;99.90;;;;;;5089145;28;20300;-71
2022/05/30 08:46:57;;;;;;;17.88;4.60;;;28.80;99.90;;;;;;5065848;28;20274;-72
2022/05/30 08:49:52;;;;;;;18.10;4.88;;;29.00;99.90;;;;;;5087871;28;20185;-71
2022/05/30 08:52:55;;;;;;;10.63;4.53;;;29.20;99.90;;;;;;5052531;28;20196;-70
2022/05/30 08:55:50;;;;;;;12.70;4.90;;;29.40;99.90;;;;;;5066644;28;20292;-71
2022/05/30 08:58:43;;;;;;;20.92;5.57;;;29.50;99.90;;;;;;5068857;28;20245;-73
2022/05/30 09:01:36;;;;;;;14.90;5.00;;;29.50;99.90;;;;;;5090536;28;20286;-72
2022/05/30 09:04:36;;;;;;;8.73;3.92;;;29.50;99.90;;;;;;5076175;28;20186;-72
2022/05/30 09:07:14;;;;;;;17.92;4.95;;;29.70;99.90;;;;;;5089975;28;20190;-71
2022/05/30 09:09:52;;;;;;;13.15;4.75;;;29.70;99.90;;;;;;5064564;28;20280;-73
2022/05/30 09:12:45;;;;;;;16.85;4.65;;;29.60;99.90;;;;;;5085116;28;20693;-70
2022/05/30 09:15:34;;;;;;;13.13;4.90;;;29.70;99.90;;;;;;5073721;28;20218;-70
2022/05/30 09:18:04;;;;;;;13.60;4.88;;;29.60;99.90;;;;;;5080146;28;20281;-74
2022/05/30 09:20:32;;;;;;;14.18;4.63;;;29.70;99.90;;;;;;5066632;28;20745;-71
2022/05/30 09:23:03;;;;;;;14.90;4.82;;;29.70;99.90;;;;;;5071649;28;20202;-73
2022/05/30 09:25:55;;;;;;;16.48;5.00;;;29.70;99.90;;;;;;5056258;28;20186;-73
2022/05/30 09:28:22;;;;;;;17.75;5.13;;;29.70;99.90;;;;;;5097884;28;20192;-72
2022/05/30 09:31:26;;;;;;;10.57;4.35;;;29.80;99.90;;;;;;5077632;28;20201;-73
2022/05/30 09:33:59;;;;;;;17.38;4.80;;;29.80;99.90;;;;;;5080974;28;20251;-74
2022/05/30 09:36:29;;;;;;;11.50;4.25;;;29.90;99.90;;;;;;5059187;28;20183;-73
2022/05/30 09:39:05;;;;;;;14.02;4.30;;;29.80;99.90;;;;;;5095710;28;20735;-73
2022/05/30 09:41:41;;;;;;;14.02;4.53;;;29.80;99.90;;;;;;5089250;28;20648;-73
2022/05/30 09:44:24;;;;;;;12.30;4.43;;;29.90;99.90;;;;;;5070950;28;20669;-71
2022/05/30 09:47:04;;;;;;;15.05;4.50;;;29.80;99.90;;;;;;5085618;28;20190;-71
2022/05/30 09:49:56;;;;;;;13.43;4.30;;;29.70;99.90;;;;;;5074805;28;20647;-72
2022/05/30 09:52:39;;;;;;;17.42;5.25;;;29.60;99.90;;;;;;5073061;28;20251;-72
2022/05/30 09:55:46;;;;;;;11.20;4.15;;;29.70;99.90;;;;;;5073945;28;20738;-73
2022/05/30 09:58:13;;;;;;;19.13;4.32;;;29.80;99.90;;;;;;5056615;28;20202;-74
2022/05/30 10:00:55;;;;;;;19.05;4.43;;;29.90;99.90;;;;;;5067695;28;20189;-72
2022/05/30 10:03:35;;;;;;;16.10;4.60;;;29.80;99.90;;;;;;5088005;28;20190;-72
2022/05/30 10:06:24;;;;;;;18.88;4.75;;;29.80;99.90;;;;;;5084754;28;20189;-72
2022/05/30 10:08:52;;;;;;;16.70;4.10;;;29.80;99.90;;;;;;5089449;28;20243;-75
2022/05/30 10:11:36;;;;;;;13.77;4.18;;;29.80;99.90;;;;;;5080108;28;20193;-74
2022/05/30 10:14:28;;;;;;;16.63;3.97;;;29.90;99.90;;;;;;5095184;28;21023;-72
2022/05/30 10:17:10;;;;;;;13.98;3.97;;;30.00;99.90;;;;;;5080220;28;20201;-73
2022/05/30 10:19:44;;;;;;;11.40;4.40;;;29.90;99.90;;;;;;5049255;28;20279;-73
2022/05/30 10:28:54;;;;;;;20.08;4.68;;;29.90;99.90;;;;;;5093672;28;20217;-71
2022/05/30 10:32:14;;;;;;;18.13;4.30;;;30.00;99.90;;;;;;5093123;28;20239;-73
2022/05/30 10:35:01;;;;;;;17.25;4.45;;;29.90;99.90;;;;;;5047969;28;20206;-73
2022/05/30 10:38:02;;;;;;;21.50;4.38;;;29.90;99.90;;;;;;5065292;28;20237;-74
2022/05/30 10:40:58;;;;;;;12.68;4.70;;;29.90;99.90;;;;;;5069913;28;20649;-75
2022/05/30 10:43:52;;;;;;;9.55;3.78;;;29.90;99.90;;;;;;5068422;28;20182;-75
2022/05/30 10:46:22;;;;;;;12.05;4.57;;;30.00;99.90;;;;;;5082756;28;20712;-75
2022/05/30 10:49:13;;;;;;;14.55;3.63;;;30.00;99.90;;;;;;5053077;28;20698;-74
2022/05/30 10:52:03;;;;;;;18.60;4.70;;;30.10;99.90;;;;;;5067515;28;20206;-73
2022/05/30 10:54:42;;;;;;;8.77;3.45;;;30.10;99.90;;;;;;5085504;28;20242;-76
2022/05/30 10:57:29;;;;;;;11.90;3.67;;;30.10;99.90;;;;;;5066216;28;20222;-72
2022/05/30 11:00:13;;;;;;;13.40;3.75;;;30.10;99.90;;;;;;5065607;28;20189;-71
2022/05/30 11:03:28;;;;;;;14.80;3.80;;;30.10;99.90;;;;;;5089577;28;20167;-73
2022/05/30 11:06:11;;;;;;;14.23;4.15;;;30.10;99.90;;;;;;5092132;28;20282;-75
2022/05/30 11:09:04;;;;;;;12.40;3.65;;;30.00;99.90;;;;;;5046975;28;20195;-72
2022/05/30 11:12:09;;;;;;;20.85;4.15;;;30.10;99.90;;;;;;5053676;28;20265;-73
2022/05/30 11:14:46;;;;;;;18.33;3.63;;;30.10;99.90;;;;;;5059581;28;20549;-76
2022/05/30 11:17:23;;;;;;;11.68;3.25;;;30.10;99.90;;;;;;5089117;28;20214;-71
2022/05/30 11:20:34;;;;;;;14.63;4.25;;;30.00;99.90;;;;;;5067339;28;20254;-73
2022/05/30 11:23:07;;;;;;;16.13;4.13;;;30.10;99.90;;;;;;5072359;28;20198;-72
2022/05/30 11:26:15;;;;;;;15.25;3.78;;;30.10;99.90;;;;;;5066276;28;20270;-73
2022/05/30 11:29:09;;;;;;;14.93;4.20;;;30.00;99.90;;;;;;5068933;28;20189;-74
2022/05/30 11:31:54;;;;;;;12.95;3.85;;;30.00;99.90;;;;;;5066937;28;20191;-72
2022/05/30 11:34:45;;;;;;;18.23;4.13;;;30.00;99.90;;;;;;5069189;28;21004;-73
2022/05/30 11:37:58;;;;;;;13.80;3.70;;;30.00;99.90;;;;;;5060130;28;20270;-74
2022/05/30 11:40:48;;;;;;;19.40;3.63;;;30.10;98.90;;;;;;5080378;28;20186;-74
2022/05/30 11:43:52;;;;;;;13.35;3.30;;;30.10;97.60;;;;;;5051637;28;20270;-72
2022/05/30 11:47:03;;;;;;;11.20;3.55;;;30.10;97.20;;;;;;5081510;28;20186;-73
2022/05/30 11:49:57;;;;;;;11.05;3.88;;;30.10;97.20;;;;;;5098270;28;20192;-74
2022/05/30 11:53:03;;;;;;;10.65;3.72;;;30.20;95.70;;;;;;5084954;28;20185;-74
2022/05/30 11:56:06;;;;;;;23.58;3.88;;;30.30;96.10;;;;;;5081626;28;20674;-75
2022/05/30 11:59:16;;;;;;;16.48;3.63;;;30.30;95.10;;;;;;5067968;28;20695;-74
2022/05/30 12:01:47;;;;;;;17.35;3.97;;;30.30;95.50;;;;;;5086953;28;20243;-74
2022/05/30 12:05:09;;;;;;;13.88;3.78;;;30.30;95.00;;;;;;5060132;28;20182;-74
2022/05/30 12:08:01;;;;;;;13.98;3.85;;;30.30;95.10;;;;;;5056347;28;20597;-77
2022/05/30 12:11:10;;;;;;;14.90;3.60;;;30.30;94.40;;;;;;5041550;28;20182;-78
2022/05/30 12:14:22;;;;;;;17.15;3.60;;;30.20;94.60;;;;;;5080515;28;20206;-74
2022/05/30 12:17:29;;;;;;;14.60;3.65;;;30.30;94.50;;;;;;5063776;28;20300;-74
2022/05/30 12:25:56;;;;;;;18.17;4.00;;;30.40;94.10;;;;;;5078930;28;20240;-72
2022/05/30 12:28:28;;;;;;;13.13;3.90;;;30.30;93.90;;;;;;5081024;28;20238;-73
2022/05/30 12:30:58;;;;;;;24.60;4.47;;;30.30;93.90;;;;;;5094473;28;20190;-71
2022/05/30 12:33:31;;;;;;;16.10;4.05;;;30.30;93.70;;;;;;5068543;28;20759;-73
2022/05/30 12:36:09;;;;;;;19.83;3.70;;;30.40;92.70;;;;;;5069295;28;20205;-73
2022/05/30 12:38:59;;;;;;;13.73;4.22;;;30.30;91.70;;;;;;5061016;28;20220;-74
2022/05/30 12:41:56;;;;;;;22.15;3.90;;;30.20;91.40;;;;;;5064803;28;20205;-72
2022/05/30 12:44:51;;;;;;;18.95;3.80;;;30.10;91.40;;;;;;5064780;28;20295;-73
2022/05/30 12:47:30;;;;;;;15.93;3.58;;;30.20;91.50;;;;;;5090300;28;20652;-75
2022/05/30 12:50:35;;;;;;;16.95;3.88;;;30.20;91.20;;;;;;5079494;28;20930;-75
2022/05/30 12:53:05;;;;;;;18.10;3.67;;;30.20;91.00;;;;;;5056788;28;20247;-72
2022/05/30 12:55:33;;;;;;;19.13;4.10;;;30.20;90.80;;;;;;5090807;28;20772;-74
2022/05/30 12:58:00;;;;;;;15.70;3.97;;;30.20;89.30;;;;;;5072960;28;20243;-73
2022/05/30 13:00:42;;;;;;;17.70;3.83;;;30.10;88.70;;;;;;5094049;28;20733;-76
2022/05/30 13:03:30;;;;;;;15.25;3.38;;;30.00;88.30;;;;;;5093440;28;20182;-73
2022/05/30 13:06:44;;;;;;;19.30;3.50;;;30.00;88.00;;;;;;5066435;28;20269;-72
2022/05/30 13:09:33;;;;;;;13.55;3.70;;;30.00;86.90;;;;;;5084906;28;20288;-73
2022/05/30 13:12:56;;;;;;;14.35;3.63;;;29.90;87.70;;;;;;5063225;28;20247;-73
2022/05/30 13:15:55;;;;;;;25.38;3.88;;;29.90;86.40;;;;;;5088376;28;20653;-75
2022/05/30 13:18:22;;;;;;;11.43;3.28;;;29.90;86.20;;;;;;5078291;28;20194;-74
2022/05/30 13:21:06;;;;;;;14.43;3.63;;;29.90;86.50;;;;;;5067880;28;20227;-73
2022/05/30 13:23:35;;;;;;;18.63;3.95;;;30.00;86.30;;;;;;5077126;28;20243;-73
2022/05/30 13:26:05;;;;;;;16.52;3.78;;;30.10;84.50;;;;;;5081320;28;20190;-73
2022/05/30 13:28:41;;;;;;;13.32;3.50;;;29.90;84.90;;;;;;5073151;28;20227;-72
2022/05/30 13:31:11;;;;;;;11.90;3.00;;;29.90;82.60;;;;;;5083919;28;20190;-73
2022/05/30 13:33:51;;;;;;;15.60;3.70;;;29.80;83.40;;;;;;5079696;28;20552;-73
2022/05/30 13:36:29;;;;;;;14.88;3.40;;;29.80;81.80;;;;;;5056375;28;20197;-73
2022/05/30 13:38:57;;;;;;;17.90;3.90;;;29.80;81.90;;;;;;5054845;28;20182;-73
2022/05/30 13:41:26;;;;;;;12.13;3.47;;;29.80;83.00;;;;;;5062629;28;20584;-73
2022/05/30 13:43:57;;;;;;;15.07;3.67;;;29.80;82.20;;;;;;5097646;28;20200;-73